Time;durP1;ratioP1;P1;durP2;ratioP2;P2;SDS_P1;SDS_P2;PMS_P1;PMS_P2;Temp;Humidity;BMP_temperature;BMP_pressure;BME280_temperature;BME280_humidity;BME280_pressure;Samples;Min_cycle;Max_cycle;Signal;HPM_P1;HPM_P2
2023/12/21 00:00:26;;;;;;;2.38;0.70;;;17.70;70.90;;;;;;6184881;23;20813;-87
2023/12/21 00:02:52;;;;;;;1.20;0.70;;;17.70;70.90;;;;;;6135609;23;20150;-87
2023/12/21 00:05:19;;;;;;;2.22;0.68;;;17.80;70.70;;;;;;6184350;23;20134;-88
2023/12/21 00:07:44;;;;;;;1.70;0.70;;;17.70;70.90;;;;;;6158685;23;20169;-86
2023/12/21 00:10:16;;;;;;;1.05;0.70;;;17.70;70.60;;;;;;6134023;23;20601;-87
2023/12/21 00:12:45;;;;;;;1.85;0.77;;;17.70;70.90;;;;;;6135318;23;20242;-87
2023/12/21 00:15:17;;;;;;;2.13;0.60;;;17.70;70.90;;;;;;6103090;23;20290;-89
2023/12/21 00:17:43;;;;;;;2.60;0.63;;;17.70;70.70;;;;;;6103946;23;20158;-88
2023/12/21 00:20:14;;;;;;;1.00;0.60;;;17.70;70.60;;;;;;6123722;23;20414;-88
2023/12/21 00:22:39;;;;;;;1.13;0.52;;;17.70;70.90;;;;;;6104371;23;20845;-87
2023/12/21 00:25:05;;;;;;;1.65;0.75;;;17.70;70.70;;;;;;6122851;23;20867;-86
2023/12/21 00:27:31;;;;;;;2.13;0.73;;;17.70;71.10;;;;;;6102788;23;20565;-86
2023/12/21 00:29:57;;;;;;;2.30;0.60;;;17.70;70.80;;;;;;6139828;23;20608;-87
2023/12/21 00:32:22;;;;;;;2.38;0.80;;;17.60;70.90;;;;;;6156817;23;20545;-86
2023/12/21 00:34:49;;;;;;;1.13;0.70;;;17.60;71.00;;;;;;6132472;23;20159;-86
2023/12/21 00:37:15;;;;;;;2.30;0.73;;;17.70;70.80;;;;;;6156159;23;20610;-88
2023/12/21 00:42:16;;;;;;;2.05;0.60;;;17.70;71.00;;;;;;6157739;23;20598;-87
2023/12/21 00:44:42;;;;;;;0.98;0.70;;;17.60;71.80;;;;;;6107149;23;20590;-87
2023/12/21 00:47:10;;;;;;;1.92;0.70;;;17.60;70.30;;;;;;6132098;23;20154;-87
2023/12/21 00:49:36;;;;;;;1.75;0.85;;;17.70;70.70;;;;;;6106461;23;20158;-86
2023/12/21 00:52:02;;;;;;;0.70;0.70;;;17.60;70.80;;;;;;6154912;23;20233;-86
2023/12/21 00:54:27;;;;;;;1.33;0.80;;;17.70;70.60;;;;;;6109522;23;20147;-87
2023/12/21 00:56:53;;;;;;;1.98;0.65;;;17.70;70.60;;;;;;6155199;23;20218;-87
2023/12/21 00:59:19;;;;;;;1.45;0.57;;;17.70;70.70;;;;;;6154414;23;20139;-86
2023/12/21 01:01:45;;;;;;;1.83;0.60;;;17.70;70.30;;;;;;6096227;23;20623;-86
2023/12/21 01:04:12;;;;;;;0.82;0.60;;;17.70;70.50;;;;;;6096481;23;20180;-86
2023/12/21 01:06:39;;;;;;;3.13;0.70;;;17.70;70.80;;;;;;6094464;23;20346;-87
2023/12/21 01:09:06;;;;;;;1.20;0.60;;;17.60;70.50;;;;;;6097007;23;20148;-86
2023/12/21 01:11:34;;;;;;;0.88;0.50;;;17.70;70.90;;;;;;6049308;23;20262;-87
2023/12/21 01:14:00;;;;;;;1.15;0.70;;;17.60;70.80;;;;;;6073287;23;20183;-87
2023/12/21 01:16:26;;;;;;;1.10;0.52;;;17.60;70.70;;;;;;6096349;23;20492;-86
2023/12/21 01:18:52;;;;;;;1.42;0.70;;;17.60;71.00;;;;;;6071204;23;20461;-88
2023/12/21 01:21:18;;;;;;;2.28;0.68;;;17.60;71.10;;;;;;6094665;23;20234;-86
2023/12/21 01:23:46;;;;;;;1.48;0.80;;;17.60;71.50;;;;;;6098479;23;20610;-86
2023/12/21 01:26:11;;;;;;;1.50;0.70;;;17.60;71.10;;;;;;6049664;23;20696;-87
2023/12/21 01:28:43;;;;;;;2.10;0.70;;;17.50;71.00;;;;;;6073194;23;20137;-86
2023/12/21 01:31:09;;;;;;;0.82;0.50;;;17.50;71.80;;;;;;6024020;23;20244;-86
2023/12/21 01:33:34;;;;;;;1.25;0.45;;;17.50;71.00;;;;;;6148499;23;20150;-87
2023/12/21 01:36:00;;;;;;;0.65;0.50;;;17.60;71.00;;;;;;6154726;23;20221;-88
2023/12/21 01:38:27;;;;;;;1.48;0.70;;;17.60;70.60;;;;;;6130346;23;20151;-86
2023/12/21 01:40:52;;;;;;;1.67;0.70;;;17.60;71.00;;;;;;6132273;23;20197;-86
2023/12/21 01:43:21;;;;;;;0.77;0.60;;;17.60;70.60;;;;;;6109062;23;20162;-86
2023/12/21 01:45:46;;;;;;;1.08;0.70;;;17.60;71.30;;;;;;6106879;23;20733;-87
2023/12/21 01:48:12;;;;;;;1.30;0.60;;;17.50;71.10;;;;;;6130422;23;20158;-88
2023/12/21 01:50:38;;;;;;;2.00;0.63;;;17.50;70.90;;;;;;6103970;23;20189;-87
2023/12/21 01:53:09;;;;;;;0.75;0.55;;;17.50;70.90;;;;;;6131099;23;20139;-87
2023/12/21 01:55:35;;;;;;;1.75;0.60;;;17.50;71.00;;;;;;6105876;23;20261;-86
2023/12/21 01:58:00;;;;;;;2.42;0.73;;;17.50;71.00;;;;;;6106682;23;20185;-87
2023/12/21 02:00:26;;;;;;;1.65;0.73;;;17.50;71.00;;;;;;6132890;23;20159;-87
2023/12/21 02:02:52;;;;;;;0.65;0.60;;;17.50;70.90;;;;;;6106443;23;20147;-88
2023/12/21 02:05:18;;;;;;;1.98;0.60;;;17.50;71.20;;;;;;6130236;23;20601;-87
2023/12/21 02:07:43;;;;;;;1.15;0.60;;;17.50;71.20;;;;;;6128622;23;20699;-87
2023/12/21 02:10:09;;;;;;;1.33;0.70;;;17.50;71.20;;;;;;6156381;23;20931;-86
2023/12/21 02:12:35;;;;;;;1.85;0.60;;;17.40;71.50;;;;;;6130143;23;20464;-86
2023/12/21 02:15:01;;;;;;;1.60;0.80;;;17.50;71.50;;;;;;6151297;23;20143;-86
2023/12/21 02:17:27;;;;;;;1.00;0.60;;;17.50;71.60;;;;;;6133098;23;20156;-86
2023/12/21 02:19:52;;;;;;;1.67;0.65;;;17.50;71.50;;;;;;6106913;23;20513;-85
2023/12/21 02:22:18;;;;;;;1.77;0.50;;;17.40;71.20;;;;;;6152123;23;20162;-87
2023/12/21 02:24:44;;;;;;;1.35;0.60;;;17.40;70.90;;;;;;6104940;23;20155;-87
2023/12/21 02:27:10;;;;;;;1.45;0.70;;;17.40;71.60;;;;;;6156072;23;20131;-87
2023/12/21 02:29:36;;;;;;;1.23;0.52;;;17.40;71.20;;;;;;6156516;23;20563;-86
2023/12/21 02:32:02;;;;;;;1.50;0.80;;;17.40;71.40;;;;;;6185223;23;20177;-87
2023/12/21 02:34:27;;;;;;;1.17;0.50;;;17.40;71.40;;;;;;6133308;23;20135;-87
2023/12/21 02:36:53;;;;;;;1.55;0.70;;;17.40;71.50;;;;;;6109333;23;20562;-87
2023/12/21 02:39:19;;;;;;;1.42;0.50;;;17.40;71.40;;;;;;6131886;23;20178;-87
2023/12/21 02:41:47;;;;;;;1.67;0.80;;;17.40;71.30;;;;;;6108673;23;20852;-87
2023/12/21 02:44:15;;;;;;;1.58;0.80;;;17.40;71.40;;;;;;6108514;23;20147;-88
2023/12/21 02:46:41;;;;;;;3.30;0.85;;;17.40;71.60;;;;;;6108480;23;20225;-88
2023/12/21 02:51:32;;;;;;;1.25;0.70;;;17.40;71.60;;;;;;6212169;22;20256;-86
2023/12/21 02:53:58;;;;;;;0.93;0.60;;;17.40;71.40;;;;;;6137537;23;20157;-87
2023/12/21 02:56:24;;;;;;;1.27;0.73;;;17.40;71.40;;;;;;6162788;23;20526;-87
2023/12/21 02:58:50;;;;;;;1.20;0.70;;;17.40;71.20;;;;;;6161449;23;20216;-88
2023/12/21 03:01:16;;;;;;;1.05;0.55;;;17.40;71.40;;;;;;6162756;23;20161;-86
2023/12/21 03:03:41;;;;;;;1.38;0.70;;;17.40;71.40;;;;;;6162931;23;20164;-87
2023/12/21 03:06:07;;;;;;;1.17;0.80;;;17.30;71.40;;;;;;6161101;23;20138;-88
2023/12/21 03:08:33;;;;;;;1.27;0.80;;;17.40;71.30;;;;;;6137251;23;20181;-88
2023/12/21 03:10:59;;;;;;;0.85;0.57;;;17.30;71.40;;;;;;6137398;23;20227;-86
2023/12/21 03:13:25;;;;;;;1.15;0.65;;;17.30;71.40;;;;;;6138039;23;20142;-87
2023/12/21 03:15:54;;;;;;;0.90;0.50;;;17.30;71.30;;;;;;6137812;23;20461;-89
2023/12/21 03:18:19;;;;;;;1.08;0.68;;;17.40;71.30;;;;;;6188643;23;20138;-87
2023/12/21 03:20:45;;;;;;;0.85;0.70;;;17.40;71.20;;;;;;6135465;23;20150;-88
2023/12/21 03:23:18;;;;;;;1.48;0.60;;;17.30;71.20;;;;;;6138865;23;20255;-88
2023/12/21 03:25:44;;;;;;;1.15;0.55;;;17.40;71.40;;;;;;6162508;23;20138;-88
2023/12/21 03:28:13;;;;;;;1.75;0.80;;;17.30;71.20;;;;;;6162308;23;20142;-88
2023/12/21 03:30:40;;;;;;;1.63;0.80;;;17.40;70.90;;;;;;6138800;23;21209;-87
2023/12/21 03:33:06;;;;;;;0.68;0.60;;;17.30;71.30;;;;;;6138963;23;20233;-87
2023/12/21 03:35:34;;;;;;;1.30;0.70;;;17.40;71.20;;;;;;6139033;23;20184;-87
2023/12/21 03:38:04;;;;;;;1.75;0.70;;;17.40;71.30;;;;;;6138440;23;20184;-87
2023/12/21 03:40:30;;;;;;;3.03;0.82;;;17.30;71.20;;;;;;6162814;23;20563;-87
2023/12/21 03:42:55;;;;;;;0.60;0.60;;;17.30;72.00;;;;;;6163375;23;20154;-87
2023/12/21 03:45:21;;;;;;;2.08;0.80;;;17.30;71.30;;;;;;6164077;23;20134;-88
2023/12/21 03:47:49;;;;;;;0.93;0.60;;;17.30;71.10;;;;;;6161766;23;20146;-86
2023/12/21 03:50:14;;;;;;;1.42;0.60;;;17.30;71.30;;;;;;6161788;23;20193;-88
2023/12/21 03:52:40;;;;;;;1.98;0.95;;;17.30;71.00;;;;;;6187978;23;20218;-89
2023/12/21 03:55:06;;;;;;;0.85;0.60;;;17.40;71.00;;;;;;6188018;23;20464;-87
2023/12/21 03:57:32;;;;;;;2.58;0.90;;;17.30;71.00;;;;;;6164489;23;20141;-87
2023/12/21 04:00:00;;;;;;;1.92;0.70;;;17.30;71.20;;;;;;6138661;23;20169;-90
2023/12/21 04:02:25;;;;;;;0.68;0.57;;;17.30;71.20;;;;;;6164393;23;20126;-87
2023/12/21 04:04:51;;;;;;;1.33;0.55;;;17.30;71.30;;;;;;6171322;23;20154;-86
2023/12/21 04:07:18;;;;;;;0.60;0.50;;;17.30;71.00;;;;;;6169188;23;20130;-88
2023/12/21 04:12:14;;;;;;;0.90;0.80;;;17.40;70.90;;;;;;6159280;23;20203;-88
2023/12/21 04:14:40;;;;;;;0.73;0.60;;;17.30;70.90;;;;;;6107898;23;20154;-88
2023/12/21 04:17:06;;;;;;;1.58;0.90;;;17.30;71.20;;;;;;6106102;23;20151;-88
2023/12/21 04:19:34;;;;;;;0.73;0.55;;;17.30;71.30;;;;;;6109549;23;20146;-87
2023/12/21 04:22:00;;;;;;;1.23;0.80;;;17.30;71.30;;;;;;6134330;23;20161;-87
2023/12/21 04:24:26;;;;;;;1.23;0.70;;;17.30;71.00;;;;;;6133753;23;20174;-87
2023/12/21 04:26:51;;;;;;;0.98;0.70;;;17.30;71.10;;;;;;6156115;23;20515;-88
2023/12/21 04:29:17;;;;;;;1.00;0.57;;;17.20;71.10;;;;;;6155388;23;20205;-88
2023/12/21 04:31:44;;;;;;;0.93;0.70;;;17.30;71.10;;;;;;6158154;23;20173;-87
2023/12/21 04:34:10;;;;;;;0.93;0.70;;;17.20;72.10;;;;;;6134995;23;20158;-88
2023/12/21 04:36:37;;;;;;;2.50;0.80;;;17.20;70.90;;;;;;6111194;23;20494;-85
2023/12/21 04:39:03;;;;;;;1.50;0.70;;;17.30;71.00;;;;;;6133828;23;20151;-88
2023/12/21 04:41:30;;;;;;;1.08;0.60;;;17.30;71.10;;;;;;6159626;23;20146;-85
2023/12/21 04:43:56;;;;;;;1.35;0.60;;;17.20;71.00;;;;;;6182766;23;20135;-87
2023/12/21 04:46:22;;;;;;;1.13;0.70;;;17.20;71.10;;;;;;6133214;23;20206;-88
2023/12/21 04:48:48;;;;;;;1.27;0.70;;;17.20;71.10;;;;;;6156972;23;20134;-88
2023/12/21 04:51:15;;;;;;;1.88;0.80;;;17.20;71.00;;;;;;6156071;23;20170;-87
2023/12/21 04:53:41;;;;;;;1.30;0.70;;;17.20;71.10;;;;;;6109296;23;20143;-88
2023/12/21 04:56:07;;;;;;;1.27;0.70;;;17.20;71.10;;;;;;6157188;23;20265;-88
2023/12/21 04:58:33;;;;;;;1.00;0.80;;;17.20;71.00;;;;;;6107735;23;20154;-87
2023/12/21 05:00:59;;;;;;;1.38;0.70;;;17.20;70.90;;;;;;6133701;23;20138;-89
2023/12/21 05:03:27;;;;;;;1.17;0.60;;;17.30;70.90;;;;;;6132577;23;20157;-88
2023/12/21 05:08:35;;;;;;;1.17;0.70;;;17.30;70.80;;;;;;6213222;23;20239;-86
2023/12/21 05:11:07;;;;;;;1.10;0.77;;;17.20;70.80;;;;;;6211710;23;20539;-86
2023/12/21 05:13:32;;;;;;;0.93;0.73;;;17.20;70.70;;;;;;6161287;23;20150;-87
2023/12/21 05:15:58;;;;;;;1.05;0.77;;;17.20;70.80;;;;;;6159620;23;20154;-87
2023/12/21 05:18:24;;;;;;;1.05;0.73;;;17.20;70.70;;;;;;6184335;23;20470;-87
2023/12/21 05:20:50;;;;;;;2.85;0.70;;;17.30;70.80;;;;;;6213506;23;20145;-86
2023/12/21 05:23:17;;;;;;;1.58;0.90;;;17.20;70.70;;;;;;6212589;23;20489;-87
2023/12/21 05:25:43;;;;;;;1.10;0.60;;;17.20;70.80;;;;;;6133140;23;20177;-87
2023/12/21 05:28:12;;;;;;;1.23;0.60;;;17.20;70.30;;;;;;6212135;23;20546;-86
2023/12/21 05:30:38;;;;;;;1.35;0.65;;;17.20;70.70;;;;;;6155138;23;20210;-86
2023/12/21 05:33:04;;;;;;;2.47;0.70;;;17.20;70.80;;;;;;6181380;23;20516;-87
2023/12/21 05:35:30;;;;;;;0.70;0.50;;;17.20;70.80;;;;;;6181689;23;20146;-87
2023/12/21 05:37:55;;;;;;;1.05;0.70;;;17.10;70.80;;;;;;6179907;23;20210;-85
2023/12/21 05:40:22;;;;;;;1.20;0.70;;;17.20;70.90;;;;;;6155267;23;20138;-86
2023/12/21 05:42:48;;;;;;;1.73;0.98;;;17.10;70.90;;;;;;6180329;23;20131;-86
2023/12/21 05:45:14;;;;;;;2.25;0.68;;;17.10;71.00;;;;;;6179652;23;20597;-86
2023/12/21 05:47:40;;;;;;;1.88;0.70;;;17.20;70.70;;;;;;6180229;23;20201;-88
2023/12/21 05:50:06;;;;;;;1.05;0.60;;;17.20;70.80;;;;;;6179980;23;20557;-86
2023/12/21 05:52:32;;;;;;;0.80;0.65;;;17.10;70.40;;;;;;6131487;23;20148;-87
2023/12/21 05:55:10;;;;;;;0.95;0.70;;;17.20;70.70;;;;;;6183200;23;20185;-88
2023/12/21 05:57:35;;;;;;;1.15;0.65;;;17.20;70.70;;;;;;6180081;23;20224;-87
2023/12/21 06:00:01;;;;;;;1.15;0.85;;;17.10;70.80;;;;;;6156692;23;20159;-87
2023/12/21 06:02:27;;;;;;;1.67;0.75;;;17.20;70.70;;;;;;6179251;23;20597;-88
2023/12/21 06:07:28;;;;;;;0.57;0.50;;;17.10;70.70;;;;;;6208964;22;20205;-84
2023/12/21 06:10:14;;;;;;;1.30;0.60;;;17.20;70.60;;;;;;6158864;23;20198;-88
2023/12/21 06:12:39;;;;;;;1.23;0.80;;;17.20;70.40;;;;;;6181282;23;20159;-87
2023/12/21 06:15:05;;;;;;;0.85;0.47;;;17.10;70.50;;;;;;6181646;23;20158;-87
2023/12/21 06:20:11;;;;;;;2.55;0.52;;;17.10;70.50;;;;;;6158755;23;20238;-87
2023/12/21 06:22:39;;;;;;;1.70;0.70;;;17.20;70.40;;;;;;6157813;23;20135;-87
2023/12/21 06:25:05;;;;;;;1.80;0.80;;;17.20;70.50;;;;;;6132346;23;20205;-89
2023/12/21 06:27:31;;;;;;;0.77;0.60;;;17.10;70.10;;;;;;6111138;23;20467;-87
2023/12/21 06:29:56;;;;;;;1.00;0.90;;;17.20;70.50;;;;;;6133660;23;20131;-86
2023/12/21 06:32:24;;;;;;;1.00;0.60;;;17.20;70.40;;;;;;6132753;23;20159;-89
2023/12/21 06:34:50;;;;;;;1.02;0.60;;;17.20;70.40;;;;;;6133204;23;20138;-90
2023/12/21 06:37:17;;;;;;;2.80;0.80;;;17.20;70.40;;;;;;6134098;23;20855;-89
2023/12/21 06:39:54;;;;;;;0.50;0.50;;;17.10;70.40;;;;;;6158610;23;20567;-88
2023/12/21 06:42:23;;;;;;;1.00;0.60;;;17.20;70.50;;;;;;6111960;23;20158;-91
2023/12/21 06:44:49;;;;;;;1.05;0.68;;;17.10;70.60;;;;;;6085103;23;20262;-87
2023/12/21 06:47:15;;;;;;;1.00;0.68;;;17.10;70.80;;;;;;6110086;23;20201;-86
2023/12/21 06:49:44;;;;;;;2.00;0.60;;;17.10;70.40;;;;;;6158677;23;20135;-88
2023/12/21 06:52:11;;;;;;;1.23;0.57;;;17.10;70.40;;;;;;6133104;23;20210;-89
2023/12/21 06:54:40;;;;;;;1.52;0.65;;;17.10;70.30;;;;;;6130609;23;20139;-89
2023/12/21 06:57:06;;;;;;;1.15;0.70;;;17.10;70.40;;;;;;6132931;23;20150;-86
2023/12/21 06:59:32;;;;;;;0.70;0.70;;;17.10;70.20;;;;;;6130709;23;20136;-91
2023/12/21 07:04:29;;;;;;;10.38;1.45;;;17.20;70.20;;;;;;6153055;23;20206;-88
2023/12/21 07:06:56;;;;;;;10.10;1.27;;;17.10;70.40;;;;;;6103059;23;20147;-87
2023/12/21 07:09:22;;;;;;;5.95;1.30;;;17.10;70.10;;;;;;6102950;23;20154;-87
2023/12/21 07:11:48;;;;;;;4.30;0.65;;;17.10;70.30;;;;;;6105031;23;20229;-87
2023/12/21 07:14:14;;;;;;;5.07;1.10;;;17.20;70.20;;;;;;6102787;23;20242;-86
2023/12/21 07:16:40;;;;;;;3.75;0.80;;;17.10;69.80;;;;;;6106417;23;20289;-86
2023/12/21 07:19:09;;;;;;;4.43;0.82;;;17.10;68.90;;;;;;6078925;23;20194;-86
2023/12/21 07:21:34;;;;;;;1.83;0.70;;;17.20;68.70;;;;;;6055685;23;20202;-87
2023/12/21 07:24:06;;;;;;;0.85;0.63;;;17.20;69.00;;;;;;6131264;23;20139;-87
2023/12/21 07:27:03;;;;;;;2.13;0.88;;;17.20;69.00;;;;;;6070586;23;20173;-87
2023/12/21 07:29:35;;;;;;;1.77;0.60;;;17.20;68.70;;;;;;6094150;23;20152;-88
2023/12/21 07:32:03;;;;;;;2.90;0.90;;;17.30;68.80;;;;;;5999614;23;20236;-87
2023/12/21 07:34:29;;;;;;;1.52;0.60;;;17.30;69.20;;;;;;6067725;23;20164;-86
2023/12/21 07:36:55;;;;;;;5.47;0.70;;;17.30;69.10;;;;;;6067768;23;20149;-88
2023/12/21 07:39:21;;;;;;;1.75;0.77;;;17.30;68.60;;;;;;6067579;23;20156;-88
2023/12/21 07:41:47;;;;;;;1.23;0.70;;;17.40;68.60;;;;;;6093697;23;20162;-88
2023/12/21 07:44:12;;;;;;;2.75;0.45;;;17.30;68.80;;;;;;6044862;23;20161;-86
2023/12/21 07:46:38;;;;;;;3.03;1.13;;;17.20;69.30;;;;;;6071009;23;20145;-89
2023/12/21 07:49:07;;;;;;;2.50;0.47;;;17.30;69.90;;;;;;6071568;23;20148;-86
2023/12/21 07:51:33;;;;;;;1.83;0.77;;;17.30;68.70;;;;;;6023630;23;20192;-89
2023/12/21 07:54:19;;;;;;;1.75;0.70;;;17.20;69.10;;;;;;6076287;23;20511;-89
2023/12/21 07:56:47;;;;;;;2.70;0.90;;;17.30;68.60;;;;;;6097092;23;20207;-89
2023/12/21 07:59:13;;;;;;;0.93;0.60;;;17.30;68.50;;;;;;6050147;23;20200;-87
2023/12/21 08:01:39;;;;;;;0.85;0.75;;;17.30;69.00;;;;;;6099014;23;20299;-86
2023/12/21 08:04:07;;;;;;;2.20;0.60;;;17.30;69.20;;;;;;6093582;23;20195;-86
2023/12/21 08:06:33;;;;;;;1.77;0.60;;;17.20;69.20;;;;;;6106323;23;20215;-86
2023/12/21 08:08:59;;;;;;;1.92;0.88;;;17.30;69.30;;;;;;6105569;23;20147;-86
2023/12/21 08:11:25;;;;;;;2.22;0.63;;;17.20;69.10;;;;;;6082576;23;20594;-86
2023/12/21 08:13:51;;;;;;;2.97;0.60;;;17.30;69.00;;;;;;6158430;23;20131;-86
2023/12/21 08:16:17;;;;;;;0.82;0.50;;;17.30;69.20;;;;;;6107668;23;20135;-87
2023/12/21 08:18:44;;;;;;;2.38;0.73;;;17.20;68.20;;;;;;6108185;23;20155;-87
2023/12/21 08:21:10;;;;;;;2.38;0.63;;;17.30;68.80;;;;;;6109238;23;20144;-88
2023/12/21 08:23:36;;;;;;;0.90;0.70;;;17.30;68.70;;;;;;6110295;23;20276;-87
2023/12/21 08:26:14;;;;;;;2.75;0.70;;;17.30;68.20;;;;;;6110999;23;20156;-86
2023/12/21 08:28:41;;;;;;;1.98;0.60;;;17.40;68.10;;;;;;6087742;23;20178;-85
2023/12/21 08:31:08;;;;;;;1.08;0.70;;;17.40;68.20;;;;;;6110508;23;20241;-87
2023/12/21 08:33:35;;;;;;;2.03;0.80;;;17.40;67.20;;;;;;6135374;23;20135;-86
2023/12/21 08:36:02;;;;;;;2.22;0.60;;;17.40;68.00;;;;;;6110769;23;20147;-87
2023/12/21 08:38:29;;;;;;;1.50;0.68;;;17.50;66.60;;;;;;6086215;23;20140;-87
2023/12/21 08:40:55;;;;;;;3.15;0.73;;;17.50;67.60;;;;;;6084339;23;20489;-87
2023/12/21 08:43:32;;;;;;;1.50;0.68;;;17.50;66.50;;;;;;6086762;23;20151;-86
2023/12/21 08:45:58;;;;;;;0.75;0.70;;;17.60;67.10;;;;;;6061039;23;20162;-87
2023/12/21 08:48:26;;;;;;;1.05;0.68;;;17.60;67.50;;;;;;6133245;23;20211;-86
2023/12/21 08:50:52;;;;;;;0.82;0.60;;;17.60;67.20;;;;;;6057577;23;20187;-86
2023/12/21 08:53:24;;;;;;;0.70;0.60;;;17.50;66.60;;;;;;6135488;23;20574;-85
2023/12/21 08:55:55;;;;;;;1.55;0.80;;;17.50;67.30;;;;;;6059571;23;20148;-88
2023/12/21 08:58:20;;;;;;;1.13;0.65;;;17.50;67.40;;;;;;6037282;23;20179;-87
2023/12/21 09:00:49;;;;;;;0.90;0.70;;;17.60;67.20;;;;;;6132798;23;20563;-87
2023/12/21 09:03:15;;;;;;;1.35;0.57;;;17.60;67.60;;;;;;6130786;23;20187;-87
2023/12/21 09:05:40;;;;;;;0.90;0.55;;;17.60;67.60;;;;;;6130516;23;20157;-87
2023/12/21 09:08:12;;;;;;;2.20;0.70;;;17.60;67.20;;;;;;6132442;23;20163;-87
2023/12/21 09:10:37;;;;;;;1.85;0.70;;;17.60;67.50;;;;;;6082864;23;20187;-87
2023/12/21 09:13:03;;;;;;;0.88;0.68;;;17.50;67.50;;;;;;6131580;23;20167;-88
2023/12/21 09:15:40;;;;;;;1.15;0.60;;;17.60;67.60;;;;;;6082977;23;20148;-86
2023/12/21 09:18:06;;;;;;;0.98;0.57;;;17.60;67.60;;;;;;6107228;23;20143;-88
2023/12/21 09:20:34;;;;;;;0.60;0.50;;;17.60;67.20;;;;;;6158061;23;20158;-88
2023/12/21 09:23:12;;;;;;;;;;;;;;;;;;;;;
2023/12/21 09:25:46;;;;;;;2.63;0.52;;;17.60;68.00;;;;;;6073069;23;20726;-87
2023/12/21 09:28:14;;;;;;;1.65;0.75;;;17.60;67.60;;;;;;6045666;23;20156;-87
2023/12/21 09:30:40;;;;;;;2.30;0.85;;;17.60;66.70;;;;;;6097708;23;20184;-89
2023/12/21 09:33:06;;;;;;;0.93;0.45;;;17.70;67.10;;;;;;6072814;23;20235;-86
2023/12/21 09:35:43;;;;;;;0.60;0.60;;;17.60;66.70;;;;;;6072564;23;20160;-87
2023/12/21 09:38:28;;;;;;;1.08;0.60;;;17.60;66.30;;;;;;6044616;23;20157;-86
2023/12/21 09:41:07;;;;;;;0.98;0.63;;;17.70;67.20;;;;;;6025290;23;20213;-87
2023/12/21 09:43:36;;;;;;;0.80;0.70;;;17.60;66.30;;;;;;6045422;23;20138;-86
2023/12/21 09:46:03;;;;;;;1.20;0.68;;;17.70;66.90;;;;;;6047198;23;20330;-87
2023/12/21 09:48:40;;;;;;;0.57;0.50;;;17.70;66.70;;;;;;6053169;23;20134;-86
2023/12/21 09:51:26;;;;;;;1.20;0.57;;;17.70;67.00;;;;;;6055640;23;20169;-87
2023/12/21 09:54:02;;;;;;;2.50;0.70;;;17.80;66.90;;;;;;6058233;23;20233;-87
2023/12/21 09:57:29;;;;;;;7.65;0.70;;;17.70;67.70;;;;;;6057999;23;20161;-90
2023/12/21 10:00:48;;;;;;;3.22;0.60;;;17.60;67.50;;;;;;5975547;24;20219;-87
2023/12/21 10:03:19;;;;;;;0.80;0.50;;;17.60;67.10;;;;;;5970877;24;20203;-87
2023/12/21 10:05:48;;;;;;;1.80;0.63;;;17.70;65.90;;;;;;5969830;24;20162;-86
2023/12/21 10:08:34;;;;;;;1.67;0.70;;;17.70;66.60;;;;;;5938059;24;20160;-87
2023/12/21 10:11:13;;;;;;;1.50;0.60;;;17.80;66.90;;;;;;5965487;24;20574;-88
2023/12/21 10:13:44;;;;;;;1.42;0.60;;;17.80;67.20;;;;;;5965667;24;20204;-86
2023/12/21 10:16:40;;;;;;;2.10;0.65;;;17.90;67.70;;;;;;5941887;24;20143;-89
2023/12/21 10:19:11;;;;;;;5.15;0.70;;;17.90;67.20;;;;;;5898873;24;20254;-86
2023/12/21 10:21:40;;;;;;;3.90;0.80;;;17.90;66.90;;;;;;5937085;24;20170;-87
2023/12/21 10:24:24;;;;;;;2.40;0.85;;;17.90;66.10;;;;;;5962157;24;20159;-87
2023/12/21 10:26:52;;;;;;;2.55;0.70;;;17.90;66.80;;;;;;5924265;24;20152;-88
2023/12/21 10:29:30;;;;;;;6.03;0.77;;;17.90;66.90;;;;;;5966029;24;20191;-85
2023/12/21 10:31:57;;;;;;;4.47;0.80;;;17.90;67.00;;;;;;5993874;24;20182;-86
2023/12/21 10:34:22;;;;;;;2.58;0.85;;;17.90;66.10;;;;;;5973581;23;20158;-87
2023/12/21 10:37:02;;;;;;;6.68;0.80;;;17.90;66.70;;;;;;6018921;23;20186;-88
2023/12/21 10:39:49;;;;;;;1.98;0.60;;;17.90;66.60;;;;;;6003746;23;20159;-86
2023/12/21 10:42:20;;;;;;;2.13;0.70;;;17.90;66.60;;;;;;6011181;23;20182;-87
2023/12/21 10:44:49;;;;;;;2.78;0.47;;;17.90;67.00;;;;;;5988792;23;20308;-87
2023/12/21 10:47:27;;;;;;;1.80;0.55;;;18.00;66.60;;;;;;5991632;23;20158;-88
2023/12/21 10:51:31;;;;;;;1.67;0.60;;;18.00;67.40;;;;;;6016277;23;20158;-88
2023/12/21 10:53:28;;;;;;;3.92;0.73;;;18.00;66.90;;;;;;5994241;23;20196;-89
2023/12/21 10:55:54;;;;;;;1.75;0.60;;;18.00;67.00;;;;;;5987719;23;20167;-89
2023/12/21 10:58:21;;;;;;;1.73;0.60;;;18.00;67.30;;;;;;6013745;23;20143;-90
2023/12/21 11:00:47;;;;;;;3.75;0.88;;;18.00;65.90;;;;;;5991390;23;20167;-85
2023/12/21 11:03:16;;;;;;;3.03;0.70;;;18.00;67.00;;;;;;5991020;23;20330;-87
2023/12/21 11:05:43;;;;;;;1.05;0.60;;;18.00;67.10;;;;;;5990150;23;20158;-87
2023/12/21 11:08:18;;;;;;;4.30;0.70;;;18.00;66.80;;;;;;5991600;23;20468;-88
2023/12/21 11:10:46;;;;;;;2.15;0.80;;;18.10;66.00;;;;;;5988632;23;20203;-86
2023/12/21 11:13:21;;;;;;;1.88;0.90;;;18.10;66.50;;;;;;6055990;23;20172;-88
2023/12/21 11:16:00;;;;;;;0.82;0.63;;;18.10;66.80;;;;;;6004430;23;20159;-88
2023/12/21 11:19:10;;;;;;;3.75;0.65;;;18.10;66.00;;;;;;6005395;23;20596;-89
2023/12/21 11:21:45;;;;;;;1.05;0.70;;;18.10;66.40;;;;;;6071098;23;20169;-89
2023/12/21 11:24:27;;;;;;;3.50;0.80;;;18.10;66.10;;;;;;6096398;23;20181;-89
2023/12/21 11:27:15;;;;;;;1.70;0.85;;;18.10;66.50;;;;;;6071875;23;20161;-87
2023/12/21 11:30:22;;;;;;;3.30;0.93;;;18.10;67.10;;;;;;5988753;24;20164;-86
2023/12/21 11:33:10;;;;;;;3.03;0.70;;;18.10;66.80;;;;;;5984259;24;20243;-89
2023/12/21 11:35:53;;;;;;;3.28;0.90;;;18.10;67.30;;;;;;5958984;24;20160;-88
2023/12/21 11:38:19;;;;;;;1.00;0.60;;;18.10;66.30;;;;;;5854828;24;20184;-87
2023/12/21 11:40:47;;;;;;;1.00;0.73;;;18.10;66.70;;;;;;5879294;24;20188;-86
2023/12/21 11:43:30;;;;;;;3.42;0.68;;;18.10;67.00;;;;;;5880535;24;20214;-87
2023/12/21 11:45:58;;;;;;;0.60;0.60;;;18.10;66.00;;;;;;5878282;24;20229;-88
2023/12/21 11:48:26;;;;;;;3.28;0.50;;;18.20;66.70;;;;;;5877690;24;20239;-86
2023/12/21 11:51:03;;;;;;;1.27;0.60;;;18.10;68.30;;;;;;5879362;24;20330;-88
2023/12/21 11:53:34;;;;;;;1.40;0.60;;;18.10;67.40;;;;;;5904048;24;20230;-88
2023/12/21 11:56:00;;;;;;;3.33;0.68;;;18.00;67.30;;;;;;5870549;24;20515;-88
2023/12/21 11:58:39;;;;;;;2.72;0.80;;;18.10;67.40;;;;;;5848619;24;20160;-87
2023/12/21 12:01:07;;;;;;;2.67;0.88;;;18.00;68.20;;;;;;5839064;24;20170;-87
2023/12/21 12:03:35;;;;;;;0.73;0.50;;;18.00;66.90;;;;;;5839736;24;20556;-87
2023/12/21 12:06:04;;;;;;;1.73;0.75;;;18.00;66.40;;;;;;5839557;24;20220;-89
2023/12/21 12:08:46;;;;;;;1.55;0.73;;;18.00;66.70;;;;;;5850353;24;20153;-86
2023/12/21 12:11:30;;;;;;;3.25;0.80;;;18.10;66.80;;;;;;5870292;24;20205;-86
2023/12/21 12:14:01;;;;;;;1.10;0.77;;;18.10;66.00;;;;;;5830385;24;20166;-86
2023/12/21 12:16:32;;;;;;;0.85;0.50;;;18.10;65.90;;;;;;5873895;24;20580;-87
2023/12/21 12:19:26;;;;;;;2.60;0.80;;;18.20;66.90;;;;;;5833241;24;20611;-86
2023/12/21 12:21:56;;;;;;;2.15;0.75;;;18.30;66.80;;;;;;5877908;24;20252;-90
2023/12/21 12:24:22;;;;;;;1.75;0.88;;;18.10;67.40;;;;;;5854305;24;20621;-88
2023/12/21 12:26:49;;;;;;;3.97;0.80;;;18.00;66.90;;;;;;5899978;24;20149;-88
2023/12/21 12:29:21;;;;;;;1.90;0.75;;;18.10;66.00;;;;;;5891877;24;20167;-90
2023/12/21 12:31:51;;;;;;;3.65;0.65;;;18.10;66.50;;;;;;5856645;24;20220;-89
2023/12/21 12:34:21;;;;;;;1.50;0.75;;;18.10;66.60;;;;;;5926109;24;20153;-88
2023/12/21 12:37:02;;;;;;;1.80;0.60;;;18.10;66.40;;;;;;5856360;24;20157;-89
2023/12/21 12:39:30;;;;;;;2.25;1.00;;;18.10;66.40;;;;;;5902370;24;20252;-88
2023/12/21 12:41:58;;;;;;;0.70;0.50;;;18.10;66.50;;;;;;5927456;24;20171;-90
2023/12/21 12:44:26;;;;;;;1.45;0.75;;;18.10;66.10;;;;;;5935732;23;20183;-88
2023/12/21 12:46:56;;;;;;;0.77;0.60;;;17.90;66.50;;;;;;6066486;23;20185;-90
2023/12/21 12:49:26;;;;;;;1.30;0.80;;;18.00;66.40;;;;;;6041450;23;20153;-89
2023/12/21 12:51:54;;;;;;;2.30;0.73;;;18.00;67.00;;;;;;6021628;23;20193;-88
2023/12/21 12:54:20;;;;;;;1.42;0.70;;;17.90;64.90;;;;;;6074984;23;20148;-89
2023/12/21 12:56:52;;;;;;;0.60;0.60;;;18.00;66.90;;;;;;6075742;23;20155;-88
2023/12/21 12:59:23;;;;;;;1.90;0.75;;;17.90;66.40;;;;;;6050949;23;20156;-87
2023/12/21 13:01:51;;;;;;;1.60;0.60;;;17.90;66.50;;;;;;6051244;23;20160;-90
2023/12/21 13:04:19;;;;;;;1.67;0.80;;;18.00;65.60;;;;;;6074801;23;20324;-89
2023/12/21 13:06:49;;;;;;;3.90;0.80;;;17.90;66.60;;;;;;6123546;23;20167;-87
2023/12/21 13:09:18;;;;;;;0.82;0.60;;;17.90;67.50;;;;;;6075183;23;20144;-90
2023/12/21 13:11:44;;;;;;;0.63;0.60;;;17.80;66.60;;;;;;6032761;23;20218;-91
2023/12/21 13:14:12;;;;;;;1.58;0.68;;;17.90;67.30;;;;;;6101616;23;20147;-88
2023/12/21 13:16:39;;;;;;;0.55;0.55;;;17.90;65.30;;;;;;6103724;23;20472;-88